Hovedside
METAR-TAF:

METAR-TAF

Lufthavner :

Gwadar, Pakistan

breddegrad: 25-13-59N, lengdegrad: 062-19-46E, høyde over havet: 29 m

METAR: fraværende

Tid: 02:09 (21:09 UTC)

Varsel

Denne rapporten ble laget for 4 timer og 9 minutter siden, klokken 17:00 UTC
Varsel gyldig fra 14. klokken 18 UTC til 15. klokken 18 UTC
Vind 5 kt fra Sørvest
Sikt: 2500 m
Spredte skyer i en høyde av 2500 ft
røyk
Midlertidig
fra 15. klokken 00 UTC til 15. klokken 04 UTC
Vind 2 kt fra skiftende retning
Sikt: 2000 m
Spredte skyer i en høyde av 2000 ft
dis
Fra 15. klokken 0600 UTC
Vind 8 kt fra Sørvest med vindkast opp mot 18 kt
Sikt: 5000 m
Spredte skyer i en høyde av 3000 ft
dis,

TAF: OPGD 141700Z 1418/1518 22005KT 2500 FU SCT025 TEMPO 1500/1504 VRB02KT 2000 BR SCT020 FM150600 23008G18KT 5000 HZ SCT030

Værobservasjoner og værvarsel for over 4000 flyplasser (METAR- og TAF-rapporter).

Tilgjengelige stasjoner er representert av de røde og gule prikkene på kartet.

Hold musepekeren over prikken for å se navnet på stasjonen.

Klikk så for å se værobservasjoner og -varsler.

For å forandre kartet kan du klikke på den grønne knappen med svart kryss for å zoome inn, på den grønne knappen med strek for å zoome ut, eller på de grønne pilene for å se tilstøtende kart.


METAR-TAF: